Time;durP1;ratioP1;P1;durP2;ratioP2;P2;SDS_P1;SDS_P2;PMS_P1;PMS_P2;Temp;Humidity;BMP_temperature;BMP_pressure;BME280_temperature;BME280_humidity;BME280_pressure;Samples;Min_cycle;Max_cycle;Signal;HPM_P1;HPM_P2
2024/01/07 00:00:03;;;;;;;0.30;0.20;;;11.30;99.90;;;;;;5072048;28;20223;-78
2024/01/07 00:02:30;;;;;;;0.30;0.20;;;11.30;99.90;;;;;;5070357;28;20465;-80
2024/01/07 00:04:57;;;;;;;0.30;0.20;;;11.30;99.90;;;;;;5070104;28;20237;-75
2024/01/07 00:07:23;;;;;;;0.30;0.20;;;11.30;99.90;;;;;;5071887;28;20161;-79
2024/01/07 00:09:49;;;;;;;0.30;0.20;;;11.30;99.90;;;;;;5071623;28;20278;-75
2024/01/07 00:12:14;;;;;;;0.63;0.63;;;11.30;99.90;;;;;;5070399;28;20505;-75
2024/01/07 00:14:40;;;;;;;0.30;0.20;;;11.30;99.90;;;;;;5071624;28;20247;-74
2024/01/07 00:17:06;;;;;;;0.70;0.70;;;11.20;99.90;;;;;;5071761;28;20211;-75
2024/01/07 00:19:31;;;;;;;0.60;0.60;;;11.20;99.90;;;;;;5071964;28;20611;-74
2024/01/07 00:21:57;;;;;;;0.30;0.20;;;11.20;99.90;;;;;;5070020;28;20220;-76
2024/01/07 00:24:25;;;;;;;0.40;0.20;;;11.20;99.90;;;;;;5070436;28;20201;-75
2024/01/07 00:26:51;;;;;;;0.30;0.20;;;11.20;99.90;;;;;;5071216;28;20406;-74
2024/01/07 00:29:17;;;;;;;0.30;0.20;;;11.20;99.90;;;;;;5071981;28;20214;-79
2024/01/07 00:31:42;;;;;;;0.30;0.20;;;11.20;99.90;;;;;;5070388;28;20283;-79
2024/01/07 00:34:08;;;;;;;0.30;0.20;;;11.20;99.90;;;;;;5071580;28;20213;-74
2024/01/07 00:36:34;;;;;;;3.23;3.13;;;11.20;99.90;;;;;;5071370;28;20224;-77
2024/01/07 00:39:00;;;;;;;0.30;0.20;;;11.20;99.90;;;;;;5069706;28;20573;-79
2024/01/07 00:41:25;;;;;;;0.30;0.20;;;11.20;99.90;;;;;;5069915;28;20212;-75
2024/01/07 00:43:52;;;;;;;0.30;0.20;;;11.20;99.90;;;;;;5070555;28;20197;-74
2024/01/07 00:46:18;;;;;;;0.30;0.20;;;11.20;99.90;;;;;;5070236;28;20183;-80
2024/01/07 00:48:44;;;;;;;0.30;0.30;;;11.20;99.90;;;;;;5069284;28;20201;-75
2024/01/07 00:51:09;;;;;;;0.30;0.20;;;11.20;99.90;;;;;;5069510;28;20661;-79
2024/01/07 00:53:35;;;;;;;0.30;0.30;;;11.20;99.90;;;;;;5069779;28;20208;-79
2024/01/07 00:56:01;;;;;;;0.30;0.30;;;11.20;99.90;;;;;;5069590;28;20268;-74
2024/01/07 00:58:26;;;;;;;0.30;0.20;;;11.20;99.90;;;;;;5069278;28;20197;-80
2024/01/07 01:00:53;;;;;;;0.30;0.20;;;11.10;99.90;;;;;;5069378;28;20251;-79
2024/01/07 01:03:19;;;;;;;2.08;1.95;;;11.10;99.90;;;;;;5069253;28;20205;-74
2024/01/07 01:05:45;;;;;;;0.30;0.20;;;11.10;99.90;;;;;;5070541;28;20236;-74
2024/01/07 01:08:11;;;;;;;0.30;0.20;;;11.10;99.90;;;;;;5068950;28;20445;-74
2024/01/07 01:10:37;;;;;;;0.30;0.20;;;11.10;99.90;;;;;;5069489;28;20177;-78
2024/01/07 01:13:03;;;;;;;0.30;0.20;;;11.10;99.90;;;;;;5070391;28;20197;-79
2024/01/07 01:15:29;;;;;;;0.30;0.20;;;11.10;99.90;;;;;;5069426;28;20414;-79
2024/01/07 01:17:54;;;;;;;0.30;0.20;;;11.20;99.90;;;;;;5070385;28;20765;-78
2024/01/07 01:20:20;;;;;;;0.83;0.80;;;11.10;99.90;;;;;;5070619;28;20662;-79
2024/01/07 01:22:46;;;;;;;0.30;0.20;;;11.10;99.90;;;;;;5069799;28;20742;-79
2024/01/07 01:25:11;;;;;;;0.30;0.20;;;11.10;99.90;;;;;;5069097;28;20181;-76
2024/01/07 01:27:38;;;;;;;0.30;0.20;;;11.20;99.90;;;;;;5070182;28;20248;-79
2024/01/07 01:30:04;;;;;;;0.30;0.20;;;11.20;99.90;;;;;;5069013;28;20558;-75
2024/01/07 01:32:29;;;;;;;0.30;0.20;;;11.20;99.90;;;;;;5068719;28;20189;-80
2024/01/07 01:34:55;;;;;;;0.30;0.20;;;11.20;99.90;;;;;;5068958;28;20661;-79
2024/01/07 01:37:20;;;;;;;0.30;0.20;;;11.20;99.90;;;;;;5068831;28;20182;-75
2024/01/07 01:39:47;;;;;;;0.30;0.20;;;11.20;99.90;;;;;;5069929;28;20192;-80
2024/01/07 01:42:13;;;;;;;0.30;0.20;;;11.30;99.90;;;;;;5070074;28;20604;-80
2024/01/07 01:44:38;;;;;;;0.30;0.20;;;11.30;99.90;;;;;;5069189;28;20312;-74
2024/01/07 01:47:06;;;;;;;0.30;0.20;;;11.30;99.90;;;;;;5068700;28;20260;-74
2024/01/07 01:49:32;;;;;;;0.30;0.20;;;11.30;99.90;;;;;;5068308;28;20196;-74
2024/01/07 01:51:58;;;;;;;0.30;0.20;;;11.30;99.90;;;;;;5069768;28;20642;-79
2024/01/07 01:54:24;;;;;;;0.30;0.20;;;11.30;99.90;;;;;;5070123;28;20233;-80
2024/01/07 01:56:50;;;;;;;0.30;0.20;;;11.30;99.90;;;;;;5069451;28;20410;-75
2024/01/07 01:59:16;;;;;;;0.30;0.20;;;11.30;99.90;;;;;;5069220;28;20438;-80
2024/01/07 02:01:42;;;;;;;0.30;0.20;;;11.30;99.90;;;;;;5068333;28;20253;-74
2024/01/07 02:04:09;;;;;;;0.30;0.20;;;11.30;99.90;;;;;;5070048;28;20197;-80
2024/01/07 02:06:35;;;;;;;0.30;0.20;;;11.30;99.90;;;;;;5068466;28;20238;-80
2024/01/07 02:09:02;;;;;;;0.30;0.20;;;11.30;99.90;;;;;;5069632;28;20433;-79
2024/01/07 02:11:27;;;;;;;0.30;0.20;;;11.30;99.90;;;;;;5068762;28;20545;-74
2024/01/07 02:13:53;;;;;;;0.30;0.20;;;11.30;99.90;;;;;;5068066;28;20284;-79
2024/01/07 02:16:19;;;;;;;0.30;0.20;;;11.30;99.90;;;;;;5069769;28;20261;-79
2024/01/07 02:18:46;;;;;;;0.30;0.20;;;11.30;99.90;;;;;;5069338;28;20625;-75
2024/01/07 02:21:13;;;;;;;0.30;0.20;;;11.30;99.90;;;;;;5067974;28;20260;-74
2024/01/07 02:23:39;;;;;;;0.30;0.20;;;11.30;99.90;;;;;;5069553;28;20559;-74
2024/01/07 02:26:05;;;;;;;0.30;0.20;;;11.30;99.90;;;;;;5069301;28;20177;-79
2024/01/07 02:28:32;;;;;;;0.30;0.20;;;11.30;99.90;;;;;;5069584;28;20207;-75
2024/01/07 02:30:58;;;;;;;1.50;1.50;;;11.30;99.90;;;;;;5069495;28;20169;-75
2024/01/07 02:33:24;;;;;;;0.47;0.47;;;11.30;99.90;;;;;;5067914;28;20204;-75
2024/01/07 02:35:49;;;;;;;0.30;0.30;;;11.30;99.90;;;;;;5067380;28;20177;-75
2024/01/07 02:38:15;;;;;;;0.30;0.20;;;11.30;99.90;;;;;;5069041;28;21032;-74
2024/01/07 02:40:41;;;;;;;0.30;0.20;;;11.30;99.90;;;;;;5069410;28;20517;-75
2024/01/07 02:43:07;;;;;;;0.33;0.20;;;11.30;99.90;;;;;;5069274;28;20201;-75
2024/01/07 02:45:32;;;;;;;0.30;0.30;;;11.20;99.90;;;;;;5068747;28;20208;-79
2024/01/07 02:47:58;;;;;;;0.30;0.20;;;11.20;99.90;;;;;;5067765;28;20228;-75
2024/01/07 02:50:24;;;;;;;0.30;0.20;;;11.20;99.90;;;;;;5068130;28;20184;-75
2024/01/07 02:52:49;;;;;;;0.30;0.20;;;11.20;99.90;;;;;;5067569;28;20457;-80
2024/01/07 02:55:15;;;;;;;0.30;0.20;;;11.20;99.90;;;;;;5069332;28;20177;-74
2024/01/07 02:57:41;;;;;;;0.30;0.20;;;11.20;99.90;;;;;;5069177;28;20180;-74
2024/01/07 03:00:07;;;;;;;0.30;0.20;;;11.20;99.90;;;;;;5069854;28;20208;-74
2024/01/07 03:02:33;;;;;;;0.30;0.20;;;11.20;99.90;;;;;;5067813;28;20239;-74
2024/01/07 03:04:59;;;;;;;0.50;0.50;;;11.20;99.90;;;;;;5069058;28;20229;-74
2024/01/07 03:07:25;;;;;;;0.30;0.20;;;11.20;99.90;;;;;;5067664;28;20181;-74
2024/01/07 03:09:51;;;;;;;0.30;0.20;;;11.10;99.90;;;;;;5067421;28;20231;-79
2024/01/07 03:12:16;;;;;;;0.30;0.20;;;11.10;99.90;;;;;;5072316;28;20398;-75
2024/01/07 03:14:42;;;;;;;0.30;0.20;;;11.10;99.90;;;;;;5071384;28;20662;-75
2024/01/07 03:17:09;;;;;;;0.30;0.30;;;11.10;99.90;;;;;;5072986;28;20551;-79
2024/01/07 03:19:35;;;;;;;0.30;0.30;;;11.10;99.90;;;;;;5071215;28;20464;-80
2024/01/07 03:22:01;;;;;;;0.40;0.20;;;11.10;99.90;;;;;;5071103;28;20205;-76
2024/01/07 03:24:26;;;;;;;0.30;0.20;;;11.00;99.90;;;;;;5072544;28;20197;-74
2024/01/07 03:26:52;;;;;;;0.30;0.20;;;11.00;99.90;;;;;;5072240;28;20185;-75
2024/01/07 03:29:17;;;;;;;0.30;0.20;;;11.00;99.90;;;;;;5072595;28;20243;-79
2024/01/07 03:31:43;;;;;;;0.30;0.30;;;11.00;99.90;;;;;;5072462;28;20719;-79
2024/01/07 03:34:09;;;;;;;0.30;0.20;;;11.00;99.90;;;;;;5071284;28;20225;-74
2024/01/07 03:36:35;;;;;;;0.30;0.20;;;11.00;99.90;;;;;;5070307;28;20285;-77
2024/01/07 03:39:00;;;;;;;0.30;0.20;;;11.00;99.90;;;;;;5070780;28;20196;-79
2024/01/07 03:41:26;;;;;;;0.30;0.20;;;11.00;99.90;;;;;;5071013;28;20273;-75
2024/01/07 03:43:53;;;;;;;0.30;0.20;;;11.00;99.90;;;;;;5070585;28;20436;-79
2024/01/07 03:46:18;;;;;;;0.30;0.20;;;11.00;99.90;;;;;;5070600;28;20342;-75
2024/01/07 03:48:45;;;;;;;0.30;0.27;;;11.00;99.90;;;;;;5070615;28;20193;-80
2024/01/07 03:51:10;;;;;;;0.30;0.20;;;11.00;99.90;;;;;;5070691;28;20212;-80
2024/01/07 03:53:36;;;;;;;0.30;0.20;;;11.00;99.90;;;;;;5072387;28;20189;-74
2024/01/07 03:56:02;;;;;;;0.30;0.20;;;11.00;99.90;;;;;;5070351;28;20189;-76
2024/01/07 03:58:27;;;;;;;0.60;0.57;;;11.00;99.90;;;;;;5072441;28;20693;-74
2024/01/07 04:00:53;;;;;;;0.30;0.20;;;11.00;99.90;;;;;;5071844;28;20189;-80
2024/01/07 04:03:19;;;;;;;0.30;0.20;;;11.00;99.90;;;;;;5070510;28;20197;-80
2024/01/07 04:05:45;;;;;;;0.30;0.20;;;11.00;99.90;;;;;;5070645;28;20730;-79
2024/01/07 04:08:11;;;;;;;1.80;1.63;;;11.00;99.90;;;;;;5070103;28;20461;-75
2024/01/07 04:10:37;;;;;;;0.30;0.20;;;11.00;99.90;;;;;;5071885;28;20187;-79
2024/01/07 04:13:04;;;;;;;0.30;0.20;;;11.10;99.90;;;;;;5070211;28;20677;-80
2024/01/07 04:15:30;;;;;;;0.40;0.40;;;11.10;99.90;;;;;;5072026;28;20178;-80
2024/01/07 04:17:55;;;;;;;0.30;0.20;;;11.10;99.90;;;;;;5071298;28;20197;-79
2024/01/07 04:20:22;;;;;;;2.63;2.50;;;11.10;99.90;;;;;;5072133;28;20184;-79
2024/01/07 04:22:47;;;;;;;0.30;0.20;;;11.10;99.90;;;;;;5069427;28;20647;-79
2024/01/07 04:25:13;;;;;;;0.60;0.60;;;11.10;99.90;;;;;;5071489;28;20177;-76
2024/01/07 04:27:39;;;;;;;0.30;0.20;;;11.10;99.90;;;;;;5070017;28;20189;-80
2024/01/07 04:30:06;;;;;;;33.22;19.48;;;11.10;99.90;;;;;;5070416;28;20177;-75
2024/01/07 04:32:32;;;;;;;9.60;9.10;;;11.10;99.90;;;;;;5071347;28;20661;-74
2024/01/07 04:34:58;;;;;;;0.30;0.20;;;11.10;99.90;;;;;;5071450;28;20177;-79
2024/01/07 04:37:24;;;;;;;28.10;5.00;;;11.10;99.90;;;;;;5070574;28;20661;-74
2024/01/07 04:39:50;;;;;;;0.30;0.30;;;11.10;99.90;;;;;;5069679;28;20414;-79
2024/01/07 04:42:17;;;;;;;0.70;0.70;;;11.10;99.90;;;;;;5069851;28;20219;-75
2024/01/07 04:44:43;;;;;;;0.30;0.20;;;11.10;99.90;;;;;;5070812;28;20205;-74
2024/01/07 04:47:29;;;;;;;0.30;0.20;;;11.10;99.90;;;;;;5070683;28;20511;-78
2024/01/07 04:49:55;;;;;;;0.30;0.22;;;11.10;99.90;;;;;;5069447;28;20185;-80
2024/01/07 04:52:25;;;;;;;0.50;0.50;;;11.10;99.90;;;;;;5071051;28;20193;-74
2024/01/07 04:54:51;;;;;;;1.08;1.08;;;11.00;99.90;;;;;;5070606;28;20627;-74
2024/01/07 04:57:17;;;;;;;0.30;0.20;;;11.00;99.90;;;;;;5069461;28;20657;-80
2024/01/07 04:59:43;;;;;;;0.30;0.20;;;11.00;99.90;;;;;;5069465;28;20197;-79
2024/01/07 05:02:09;;;;;;;2.00;1.90;;;11.00;99.90;;;;;;5070994;28;20228;-79
2024/01/07 05:04:35;;;;;;;0.30;0.20;;;11.00;99.90;;;;;;5069375;28;20197;-74
2024/01/07 05:07:01;;;;;;;2.30;2.20;;;11.00;99.90;;;;;;5069607;28;20208;-74
2024/01/07 05:09:27;;;;;;;0.30;0.20;;;11.00;99.90;;;;;;5070653;28;20232;-74
2024/01/07 05:11:52;;;;;;;0.30;0.20;;;11.00;99.90;;;;;;5070416;28;20547;-79
2024/01/07 05:14:18;;;;;;;0.30;0.20;;;11.00;99.90;;;;;;5070585;28;20228;-74
2024/01/07 05:16:44;;;;;;;0.53;0.53;;;11.00;99.90;;;;;;5068986;28;20173;-76
2024/01/07 05:19:09;;;;;;;0.30;0.20;;;11.00;99.90;;;;;;5068901;28;20262;-75
2024/01/07 05:21:35;;;;;;;0.30;0.20;;;11.00;99.90;;;;;;5070345;28;20634;-79
2024/01/07 05:24:01;;;;;;;0.30;0.20;;;11.00;99.90;;;;;;5070031;28;20209;-74
2024/01/07 05:26:27;;;;;;;0.30;0.20;;;11.00;99.90;;;;;;5070377;28;20543;-79
2024/01/07 05:28:52;;;;;;;0.30;0.20;;;11.00;99.90;;;;;;5069092;28;20204;-75
2024/01/07 05:31:18;;;;;;;0.30;0.20;;;11.00;99.90;;;;;;5069167;28;20181;-75
2024/01/07 05:33:44;;;;;;;0.30;0.20;;;11.00;99.90;;;;;;5069789;28;20193;-79
2024/01/07 05:36:11;;;;;;;0.30;0.20;;;11.00;99.90;;;;;;5069627;28;20177;-74
2024/01/07 05:38:37;;;;;;;0.35;0.30;;;11.00;99.90;;;;;;5068166;28;20207;-75
2024/01/07 05:41:02;;;;;;;0.30;0.20;;;11.10;99.90;;;;;;5068350;28;20217;-79
2024/01/07 05:43:28;;;;;;;0.30;0.20;;;11.10;99.90;;;;;;5068575;28;20224;-74
2024/01/07 05:45:54;;;;;;;0.30;0.20;;;11.10;99.90;;;;;;5068192;28;20537;-80
2024/01/07 05:48:23;;;;;;;0.87;0.87;;;11.10;99.90;;;;;;5069961;28;20598;-79
2024/01/07 05:50:49;;;;;;;0.30;0.20;;;11.10;99.90;;;;;;5069887;28;20187;-80
2024/01/07 05:53:16;;;;;;;0.30;0.20;;;11.10;99.90;;;;;;5068276;28;20324;-75
2024/01/07 05:55:41;;;;;;;1.92;1.85;;;11.10;99.90;;;;;;5069874;28;20264;-79
2024/01/07 05:58:07;;;;;;;0.30;0.20;;;11.10;99.90;;;;;;5068319;28;20244;-79
2024/01/07 06:00:33;;;;;;;0.30;0.20;;;11.10;99.90;;;;;;5069729;28;20247;-75
2024/01/07 06:02:58;;;;;;;0.30;0.20;;;11.10;99.90;;;;;;5069256;28;20296;-80
2024/01/07 06:05:24;;;;;;;1.03;1.03;;;11.10;99.90;;;;;;5070098;28;20438;-75
2024/01/07 06:07:49;;;;;;;14.50;11.20;;;11.10;99.90;;;;;;5069120;28;20193;-74
2024/01/07 06:10:15;;;;;;;0.30;0.20;;;11.10;99.90;;;;;;5070008;28;20189;-74
2024/01/07 06:12:41;;;;;;;0.30;0.20;;;11.10;99.90;;;;;;5067905;28;20264;-74
2024/01/07 06:15:07;;;;;;;0.30;0.20;;;11.10;99.90;;;;;;5070033;28;20165;-77
2024/01/07 06:17:33;;;;;;;0.30;0.20;;;11.20;99.90;;;;;;5069649;28;20181;-79
2024/01/07 06:19:58;;;;;;;3.37;3.13;;;11.20;99.90;;;;;;5069623;28;20558;-75
2024/01/07 06:22:24;;;;;;;0.30;0.20;;;11.20;99.90;;;;;;5067954;28;20506;-74
2024/01/07 06:24:50;;;;;;;0.30;0.30;;;11.20;99.90;;;;;;5069341;28;20169;-75
2024/01/07 06:27:16;;;;;;;3.50;3.40;;;11.20;99.90;;;;;;5069403;28;20634;-79
2024/01/07 06:29:42;;;;;;;0.30;0.30;;;11.20;99.90;;;;;;5069456;28;20350;-79
2024/01/07 06:32:09;;;;;;;0.30;0.20;;;11.20;99.90;;;;;;5069239;28;20493;-75
2024/01/07 06:34:35;;;;;;;0.40;0.30;;;11.10;99.90;;;;;;5067990;28;20649;-79
2024/01/07 06:37:01;;;;;;;4.63;2.63;;;11.10;99.90;;;;;;5069307;28;20244;-79
2024/01/07 06:39:26;;;;;;;0.30;0.20;;;11.20;99.90;;;;;;5068102;28;20549;-74
2024/01/07 06:41:52;;;;;;;0.63;0.63;;;11.10;99.90;;;;;;5066873;28;20221;-74
2024/01/07 06:44:18;;;;;;;3.20;1.83;;;11.20;99.90;;;;;;5069440;28;20278;-74
2024/01/07 06:46:44;;;;;;;0.30;0.20;;;11.20;99.90;;;;;;5069927;28;20865;-74
2024/01/07 06:49:09;;;;;;;4.27;1.13;;;11.10;99.90;;;;;;5073321;28;20199;-74
2024/01/07 06:51:35;;;;;;;0.30;0.30;;;11.10;99.90;;;;;;5073259;28;20181;-74
2024/01/07 06:54:01;;;;;;;0.30;0.20;;;11.20;99.90;;;;;;5073505;28;20195;-75
2024/01/07 06:56:27;;;;;;;0.30;0.30;;;11.20;99.90;;;;;;5073179;28;20574;-74
2024/01/07 06:58:52;;;;;;;2.73;2.63;;;11.20;99.90;;;;;;5071509;28;20280;-79
2024/01/07 07:01:21;;;;;;;0.30;0.20;;;11.20;99.90;;;;;;5071722;28;20209;-80
2024/01/07 07:03:47;;;;;;;0.73;0.73;;;11.20;99.90;;;;;;5071893;28;20668;-75
2024/01/07 07:06:13;;;;;;;0.30;0.20;;;11.20;99.90;;;;;;5088181;28;20564;-75
2024/01/07 07:08:39;;;;;;;0.30;0.20;;;11.20;99.90;;;;;;5091171;28;20296;-79
2024/01/07 07:11:04;;;;;;;0.30;0.20;;;11.20;99.90;;;;;;5091887;28;20737;-79
2024/01/07 07:13:30;;;;;;;0.30;0.20;;;11.20;99.90;;;;;;5092139;28;20439;-79
2024/01/07 07:15:56;;;;;;;12.83;3.67;;;11.20;99.90;;;;;;5093088;28;20172;-79
2024/01/07 07:18:21;;;;;;;1.30;1.27;;;11.20;99.90;;;;;;5092778;28;20265;-79
2024/01/07 07:20:47;;;;;;;0.47;0.47;;;11.20;99.90;;;;;;5092875;28;20209;-80
2024/01/07 07:23:13;;;;;;;0.40;0.40;;;11.20;99.90;;;;;;5092666;28;20192;-74
2024/01/07 07:25:39;;;;;;;0.50;0.50;;;11.20;99.90;;;;;;5093114;28;20669;-75
2024/01/07 07:28:05;;;;;;;0.30;0.20;;;11.20;99.90;;;;;;5092389;28;20227;-79
2024/01/07 07:30:30;;;;;;;0.30;0.20;;;11.20;99.90;;;;;;5091081;28;20177;-74
2024/01/07 07:32:56;;;;;;;0.30;0.20;;;11.20;99.90;;;;;;5090568;28;21014;-74
2024/01/07 07:35:22;;;;;;;2.20;2.10;;;11.20;99.90;;;;;;5091129;28;20176;-79
2024/01/07 07:37:47;;;;;;;1.37;1.30;;;11.20;99.90;;;;;;5089099;28;20192;-74
2024/01/07 07:40:13;;;;;;;12.17;11.27;;;11.20;99.90;;;;;;5089671;28;20679;-74
2024/01/07 07:42:39;;;;;;;0.40;0.40;;;11.30;99.90;;;;;;5088045;28;20219;-79
2024/01/07 07:45:06;;;;;;;0.30;0.20;;;11.30;99.90;;;;;;5092174;28;20176;-76
2024/01/07 07:47:31;;;;;;;5.60;3.30;;;11.30;99.90;;;;;;5090266;28;20187;-74
2024/01/07 07:49:57;;;;;;;1.47;1.47;;;11.30;99.90;;;;;;5090992;28;20180;-80
2024/01/07 07:52:25;;;;;;;0.30;0.20;;;11.30;99.90;;;;;;5092329;28;20172;-74
2024/01/07 07:54:52;;;;;;;2.22;1.60;;;11.30;99.90;;;;;;5092202;28;20176;-74
2024/01/07 07:57:20;;;;;;;0.30;0.30;;;11.30;99.90;;;;;;5090012;28;20222;-75
2024/01/07 07:59:46;;;;;;;0.30;0.20;;;11.30;99.90;;;;;;5092177;28;20546;-74
2024/01/07 08:02:12;;;;;;;0.30;0.20;;;11.30;99.90;;;;;;5090582;28;20222;-79
2024/01/07 08:04:41;;;;;;;0.50;0.50;;;11.20;99.90;;;;;;5090661;28;20441;-74
2024/01/07 08:07:06;;;;;;;0.30;0.28;;;11.20;99.90;;;;;;5090865;28;20261;-75
2024/01/07 08:09:32;;;;;;;0.30;0.30;;;11.20;99.90;;;;;;5090674;28;20239;-74
2024/01/07 08:11:58;;;;;;;0.30;0.20;;;11.20;99.90;;;;;;5092125;28;20200;-74
2024/01/07 08:14:24;;;;;;;0.63;0.63;;;11.20;99.90;;;;;;5090614;28;20192;-74
2024/01/07 08:16:49;;;;;;;4.00;3.80;;;11.20;99.90;;;;;;5090484;28;20183;-79
2024/01/07 08:19:15;;;;;;;0.30;0.20;;;11.20;99.90;;;;;;5090430;28;20555;-73
2024/01/07 08:21:40;;;;;;;0.30;0.30;;;11.20;99.90;;;;;;5090264;28;20248;-79
2024/01/07 08:24:06;;;;;;;0.30;0.20;;;11.20;99.90;;;;;;5092132;28;20192;-79
2024/01/07 08:26:32;;;;;;;2.00;1.90;;;11.20;99.90;;;;;;5091724;28;20180;-79
2024/01/07 08:28:58;;;;;;;0.30;0.20;;;11.20;99.90;;;;;;5090329;28;20200;-79
2024/01/07 08:31:24;;;;;;;0.30;0.20;;;11.20;99.90;;;;;;5090449;28;20222;-79
2024/01/07 08:33:49;;;;;;;0.30;0.20;;;11.10;99.90;;;;;;5091533;28;20433;-79
2024/01/07 08:36:15;;;;;;;0.30;0.20;;;11.10;99.90;;;;;;5090437;28;20184;-79
2024/01/07 08:38:40;;;;;;;0.30;0.20;;;11.10;99.90;;;;;;5091729;28;20549;-82
2024/01/07 08:41:07;;;;;;;2.30;2.20;;;11.10;99.90;;;;;;5091539;28;20493;-76
2024/01/07 08:43:33;;;;;;;0.30;0.30;;;11.10;99.90;;;;;;5090648;28;20200;-74
2024/01/07 08:45:58;;;;;;;0.33;0.30;;;11.10;99.90;;;;;;5091302;28;20590;-78
2024/01/07 08:48:24;;;;;;;0.30;0.20;;;11.10;99.90;;;;;;5089224;28;20251;-76
2024/01/07 08:50:50;;;;;;;0.30;0.20;;;11.10;99.90;;;;;;5089769;28;20184;-74
2024/01/07 08:53:16;;;;;;;0.30;0.20;;;11.10;99.90;;;;;;5091420;28;20804;-74
2024/01/07 08:55:42;;;;;;;0.30;0.20;;;11.10;99.90;;;;;;5090097;28;20188;-74
2024/01/07 08:58:07;;;;;;;0.30;0.20;;;11.10;99.90;;;;;;5090985;28;20227;-79
2024/01/07 09:00:33;;;;;;;0.30;0.20;;;11.10;99.90;;;;;;5089730;28;20242;-74
2024/01/07 09:02:59;;;;;;;0.30;0.20;;;11.10;99.90;;;;;;5089325;28;20596;-79
2024/01/07 09:05:24;;;;;;;0.30;0.30;;;11.10;99.90;;;;;;5089691;28;20307;-74
2024/01/07 09:07:50;;;;;;;0.30;0.20;;;11.10;99.90;;;;;;5090697;28;20444;-78
2024/01/07 09:10:17;;;;;;;0.30;0.20;;;11.10;99.90;;;;;;5091217;28;20208;-76
2024/01/07 09:12:43;;;;;;;0.30;0.20;;;11.10;99.90;;;;;;5089035;28;20444;-74
2024/01/07 09:15:10;;;;;;;0.30;0.20;;;11.10;99.90;;;;;;5089572;28;20268;-77
2024/01/07 09:17:37;;;;;;;0.30;0.30;;;11.10;99.90;;;;;;5090939;28;20223;-79
2024/01/07 09:20:08;;;;;;;2.75;2.65;;;11.10;99.90;;;;;;5090636;28;20187;-76
2024/01/07 09:22:34;;;;;;;0.30;0.20;;;11.10;99.90;;;;;;5090480;28;20246;-81
2024/01/07 09:25:05;;;;;;;7.03;3.90;;;11.10;99.90;;;;;;5090653;28;20645;-74
2024/01/07 09:27:31;;;;;;;1.30;1.17;;;11.10;99.90;;;;;;5090858;28;20740;-81
2024/01/07 09:29:57;;;;;;;0.30;0.20;;;11.10;99.90;;;;;;5090450;28;20532;-79
2024/01/07 09:32:23;;;;;;;0.30;0.30;;;11.20;99.90;;;;;;5089347;28;20180;-74
2024/01/07 09:34:48;;;;;;;0.30;0.20;;;11.20;99.90;;;;;;5090139;28;20286;-79
2024/01/07 09:37:14;;;;;;;0.30;0.30;;;11.10;99.90;;;;;;5089275;28;20944;-74
2024/01/07 09:39:41;;;;;;;1.03;1.03;;;11.20;99.90;;;;;;5090124;28;20200;-78
2024/01/07 09:42:14;;;;;;;0.30;0.20;;;11.20;99.90;;;;;;5089147;28;20220;-74
2024/01/07 09:44:42;;;;;;;0.30;0.20;;;11.20;99.90;;;;;;5089593;28;20203;-74
2024/01/07 09:47:11;;;;;;;0.40;0.40;;;11.20;99.90;;;;;;5089960;28;20848;-74
2024/01/07 09:49:38;;;;;;;0.30;0.20;;;11.20;99.90;;;;;;5088192;28;20217;-79
2024/01/07 09:52:04;;;;;;;0.30;0.20;;;11.20;99.90;;;;;;5089162;28;20212;-74
2024/01/07 09:54:31;;;;;;;9.30;8.50;;;11.20;99.90;;;;;;5090520;28;20565;-74
2024/01/07 09:57:07;;;;;;;0.30;0.30;;;11.20;99.90;;;;;;5088710;28;20687;-74
2024/01/07 09:59:33;;;;;;;102.80;19.40;;;11.20;99.90;;;;;;5089847;28;20287;-74
2024/01/07 10:01:59;;;;;;;0.30;0.30;;;11.20;99.90;;;;;;5088533;28;20709;-75
2024/01/07 10:04:25;;;;;;;3.23;3.03;;;11.20;99.90;;;;;;5089929;28;20218;-75
2024/01/07 10:06:53;;;;;;;3.17;3.08;;;11.20;99.90;;;;;;5089578;28;20231;-74
2024/01/07 10:09:21;;;;;;;0.70;0.70;;;11.20;99.90;;;;;;5089840;28;20279;-79
2024/01/07 10:11:47;;;;;;;0.30;0.20;;;11.20;99.90;;;;;;5089779;28;20180;-74
2024/01/07 10:14:13;;;;;;;0.30;0.20;;;11.20;99.90;;;;;;5090119;28;20599;-74
2024/01/07 10:16:39;;;;;;;0.90;0.88;;;11.20;99.90;;;;;;5089600;28;20936;-79
2024/01/07 10:19:07;;;;;;;0.30;0.20;;;11.20;99.90;;;;;;5088138;28;20207;-79
2024/01/07 10:21:33;;;;;;;5.65;5.45;;;11.20;99.90;;;;;;5087794;28;20220;-80
2024/01/07 10:24:12;;;;;;;1.52;1.00;;;11.20;99.90;;;;;;5089450;28;20231;-79
2024/01/07 10:26:39;;;;;;;0.30;0.20;;;11.20;99.90;;;;;;5088754;28;20208;-75
2024/01/07 10:29:05;;;;;;;0.30;0.20;;;11.20;99.90;;;;;;5089847;28;20238;-78
2024/01/07 10:31:34;;;;;;;0.30;0.20;;;11.20;99.90;;;;;;5089631;28;20180;-79
2024/01/07 10:34:00;;;;;;;0.40;0.40;;;11.20;99.90;;;;;;5089884;28;20591;-79
2024/01/07 10:36:26;;;;;;;0.30;0.30;;;11.20;99.90;;;;;;5088220;28;20221;-75
2024/01/07 10:38:51;;;;;;;0.30;0.20;;;11.20;99.90;;;;;;5089285;28;20196;-75
2024/01/07 10:41:21;;;;;;;0.30;0.20;;;11.20;99.90;;;;;;5088601;28;20213;-79
2024/01/07 10:43:48;;;;;;;0.30;0.20;;;11.20;99.90;;;;;;5089331;28;20449;-75
2024/01/07 10:46:14;;;;;;;2.58;1.75;;;11.10;99.90;;;;;;5089465;28;20222;-80
2024/01/07 10:48:54;;;;;;;0.30;0.20;;;11.20;99.90;;;;;;5087942;28;20526;-75
2024/01/07 10:51:21;;;;;;;0.30;0.20;;;11.20;99.90;;;;;;5089274;28;20533;-79
2024/01/07 10:53:53;;;;;;;0.30;0.20;;;11.20;99.90;;;;;;5089261;28;20193;-75
2024/01/07 10:56:24;;;;;;;0.40;0.30;;;11.20;99.90;;;;;;5088261;28;20259;-80
2024/01/07 10:58:52;;;;;;;0.88;0.88;;;11.10;99.90;;;;;;5087732;28;20196;-74
2024/01/07 11:01:19;;;;;;;0.55;0.55;;;11.10;99.90;;;;;;5088014;28;20249;-75
2024/01/07 11:03:51;;;;;;;0.57;0.57;;;11.10;99.90;;;;;;5089500;28;20692;-80
2024/01/07 11:06:23;;;;;;;0.30;0.20;;;11.10;99.90;;;;;;5088168;28;20239;-74
2024/01/07 11:09:11;;;;;;;0.30;0.20;;;11.10;99.90;;;;;;5089415;28;20220;-75
2024/01/07 11:11:42;;;;;;;0.30;0.20;;;11.10;99.90;;;;;;5087758;28;20241;-80
2024/01/07 11:14:39;;;;;;;0.30;0.20;;;11.10;99.90;;;;;;5089755;28;20197;-80
2024/01/07 11:17:09;;;;;;;0.30;0.20;;;11.10;99.90;;;;;;5087874;28;20172;-80
2024/01/07 11:19:38;;;;;;;2.80;2.70;;;11.10;99.90;;;;;;5089557;28;20269;-79
2024/01/07 11:22:29;;;;;;;0.30;0.20;;;11.00;99.90;;;;;;5087796;28;20362;-80
2024/01/07 11:24:57;;;;;;;0.30;0.30;;;11.00;99.90;;;;;;5089054;28;20172;-79
2024/01/07 11:27:24;;;;;;;0.30;0.20;;;11.00;99.90;;;;;;5087603;28;20244;-74
2024/01/07 11:29:56;;;;;;;0.30;0.20;;;11.00;99.90;;;;;;5088907;28;20617;-74
2024/01/07 11:32:27;;;;;;;0.30;0.20;;;11.00;99.90;;;;;;5091006;28;20233;-79
2024/01/07 11:34:53;;;;;;;0.30;0.30;;;10.90;99.90;;;;;;5091110;28;20254;-74
2024/01/07 11:37:20;;;;;;;0.30;0.20;;;10.90;99.90;;;;;;5092818;28;20168;-75
2024/01/07 11:39:46;;;;;;;0.30;0.20;;;10.90;99.90;;;;;;5092581;28;20416;-75
2024/01/07 11:42:13;;;;;;;1.88;1.77;;;10.90;99.90;;;;;;5090936;28;20214;-80
2024/01/07 11:44:49;;;;;;;3.20;3.10;;;10.80;99.90;;;;;;5092490;28;20188;-79
2024/01/07 11:47:18;;;;;;;0.30;0.20;;;10.90;99.90;;;;;;5092498;28;20168;-74
2024/01/07 11:49:45;;;;;;;0.40;0.40;;;10.90;99.90;;;;;;5091400;28;20188;-79
2024/01/07 11:52:11;;;;;;;0.30;0.20;;;10.90;99.90;;;;;;5089968;28;20260;-79
2024/01/07 11:54:38;;;;;;;0.98;0.98;;;10.90;99.90;;;;;;5092252;28;20195;-74
2024/01/07 11:57:07;;;;;;;0.30;0.20;;;10.80;99.90;;;;;;5090898;28;20308;-74
2024/01/07 11:59:37;;;;;;;0.95;0.95;;;10.90;99.90;;;;;;5092616;28;20631;-74
2024/01/07 12:02:06;;;;;;;0.30;0.20;;;10.80;99.90;;;;;;5090912;28;20606;-80
2024/01/07 12:04:34;;;;;;;7.63;7.32;;;10.80;99.90;;;;;;5091776;28;20580;-79
2024/01/07 12:07:03;;;;;;;4.65;2.15;;;10.80;99.90;;;;;;5092234;28;20250;-79
2024/01/07 12:09:29;;;;;;;0.30;0.20;;;10.80;99.90;;;;;;5090996;28;20200;-79
2024/01/07 12:11:55;;;;;;;0.30;0.20;;;10.80;99.90;;;;;;5091670;28;20595;-74
2024/01/07 12:14:21;;;;;;;0.30;0.20;;;10.80;99.90;;;;;;5092369;28;20549;-74
2024/01/07 12:16:47;;;;;;;0.30;0.20;;;10.80;99.90;;;;;;5088026;28;20181;-78
2024/01/07 12:19:12;;;;;;;0.30;0.20;;;10.80;99.90;;;;;;5090033;28;20291;-79
2024/01/07 12:21:39;;;;;;;0.67;0.63;;;10.80;99.90;;;;;;5090024;28;20291;-75
2024/01/07 12:24:05;;;;;;;0.30;0.20;;;10.80;99.90;;;;;;5090406;28;20579;-79
2024/01/07 12:26:33;;;;;;;0.30;0.20;;;10.70;99.90;;;;;;5088523;28;20192;-74
2024/01/07 12:29:03;;;;;;;0.40;0.30;;;10.70;99.90;;;;;;5091321;28;20275;-74
2024/01/07 12:31:31;;;;;;;0.30;0.20;;;10.70;99.90;;;;;;5090917;28;20161;-75
2024/01/07 12:33:57;;;;;;;0.30;0.20;;;10.70;99.90;;;;;;5090327;28;20419;-74
2024/01/07 12:36:23;;;;;;;0.30;0.20;;;10.60;99.90;;;;;;5090544;28;20248;-75
2024/01/07 12:38:51;;;;;;;0.30;0.30;;;10.60;99.90;;;;;;5090586;28;20228;-74
2024/01/07 12:41:17;;;;;;;0.30;0.20;;;10.50;99.90;;;;;;5090328;28;20171;-75